Time;durP1;ratioP1;P1;durP2;ratioP2;P2;SDS_P1;SDS_P2;PMS_P1;PMS_P2;Temp;Humidity;BMP_temperature;BMP_pressure;BME280_temperature;BME280_humidity;BME280_pressure;Samples;Min_cycle;Max_cycle;Signal;HPM_P1;HPM_P2
2021/09/02 00:01:25;;;;;;;18.83;10.97;;;;;;;;;;5024369;28;20431;-73
2021/09/02 00:03:51;;;;;;;24.20;11.33;;;;;;;;;;5030708;28;20430;-73
2021/09/02 00:06:17;;;;;;;20.63;10.87;;;;;;;;;;5035264;28;20536;-72
2021/09/02 00:08:43;;;;;;;18.33;11.80;;;;;;;;;;5031593;28;20525;-75
2021/09/02 00:11:10;;;;;;;18.83;10.50;;;;;;;;;;5033969;28;20429;-73
2021/09/02 00:13:36;;;;;;;18.83;10.60;;;;;;;;;;5035783;28;20519;-74
2021/09/02 00:16:02;;;;;;;22.70;11.47;;;;;;;;;;5022173;28;20414;-72
2021/09/02 00:18:29;;;;;;;15.97;9.77;;;;;;;;;;5035377;28;20424;-73
2021/09/02 00:20:55;;;;;;;20.60;11.13;;;;;;;;;;5035575;28;20438;-75
2021/09/02 00:23:21;;;;;;;18.70;11.13;;;;;;;;;;5035186;28;20883;-72
2021/09/02 00:25:47;;;;;;;21.00;12.27;;;;;;;;;;5054970;28;20463;-72
2021/09/02 00:28:13;;;;;;;16.27;11.73;;;;;;;;;;5043296;28;20451;-72
2021/09/02 00:30:39;;;;;;;17.60;10.50;;;;;;;;;;5035090;28;20413;-75
2021/09/02 00:33:05;;;;;;;16.80;10.40;;;;;;;;;;5035494;28;20970;-72
2021/09/02 00:35:32;;;;;;;20.27;10.27;;;;;;;;;;5035297;28;20410;-71
2021/09/02 00:37:58;;;;;;;13.67;10.57;;;;;;;;;;5034681;28;20446;-73
2021/09/02 00:40:24;;;;;;;13.97;9.47;;;;;;;;;;5035415;28;20739;-72
2021/09/02 00:42:50;;;;;;;18.40;8.90;;;;;;;;;;5034963;28;20421;-74
2021/09/02 00:45:17;;;;;;;15.83;10.53;;;;;;;;;;5027114;28;20425;-73
2021/09/02 00:47:43;;;;;;;18.10;8.70;;;;;;;;;;5046830;28;20434;-72
2021/09/02 00:50:09;;;;;;;14.83;8.93;;;;;;;;;;5034758;28;20701;-72
2021/09/02 00:52:35;;;;;;;13.30;9.53;;;;;;;;;;5034938;28;20419;-72
2021/09/02 00:55:02;;;;;;;17.43;10.10;;;;;;;;;;5035035;28;20762;-74
2021/09/02 00:57:29;;;;;;;14.63;10.10;;;;;;;;;;5042515;28;20429;-73
2021/09/02 00:59:56;;;;;;;13.97;9.10;;;;;;;;;;5054928;28;20436;-73
2021/09/02 01:02:25;;;;;;;11.47;8.40;;;;;;;;;;5054609;28;20495;-71
2021/09/02 01:04:52;;;;;;;15.80;10.20;;;;;;;;;;5051851;28;20845;-70
2021/09/02 01:07:19;;;;;;;16.37;10.43;;;;;;;;;;5034372;28;20531;-72
2021/09/02 01:09:45;;;;;;;13.87;9.30;;;;;;;;;;5034512;28;20992;-72
2021/09/02 01:12:24;;;;;;;17.80;10.87;;;;;;;;;;5042562;28;20500;-75
2021/09/02 01:14:50;;;;;;;15.50;9.73;;;;;;;;;;5050776;28;20538;-72
2021/09/02 01:17:16;;;;;;;14.40;9.10;;;;;;;;;;5033841;28;20971;-73
2021/09/02 01:19:42;;;;;;;19.73;10.27;;;;;;;;;;5034291;28;20499;-71
2021/09/02 01:22:08;;;;;;;19.13;10.27;;;;;;;;;;5033569;28;20789;-72
2021/09/02 01:24:34;;;;;;;17.87;10.10;;;;;;;;;;5028967;28;20440;-72
2021/09/02 01:27:00;;;;;;;18.63;10.20;;;;;;;;;;5033958;28;20449;-72
2021/09/02 01:29:26;;;;;;;18.70;10.60;;;;;;;;;;5033990;28;20516;-74
2021/09/02 01:31:53;;;;;;;17.07;9.17;;;;;;;;;;5033900;28;20527;-71
2021/09/02 01:34:19;;;;;;;16.87;9.10;;;;;;;;;;5034112;28;20497;-74
2021/09/02 01:36:46;;;;;;;14.37;9.43;;;;;;;;;;5029034;28;20461;-72
2021/09/02 01:39:18;;;;;;;12.53;8.93;;;;;;;;;;5034518;28;20852;-74
2021/09/02 01:41:44;;;;;;;16.40;8.97;;;;;;;;;;5033729;28;20432;-73
2021/09/02 01:44:10;;;;;;;15.97;9.57;;;;;;;;;;5033106;28;20472;-75
2021/09/02 01:46:36;;;;;;;15.37;9.30;;;;;;;;;;5043958;28;20414;-72
2021/09/02 01:49:02;;;;;;;14.87;9.20;;;;;;;;;;5034695;28;20778;-73
2021/09/02 01:51:28;;;;;;;18.87;9.33;;;;;;;;;;5033811;28;20433;-74
2021/09/02 01:53:54;;;;;;;15.43;9.20;;;;;;;;;;5033970;28;20454;-72
2021/09/02 01:56:20;;;;;;;15.57;9.40;;;;;;;;;;5037952;28;20423;-74
2021/09/02 01:58:46;;;;;;;13.60;8.00;;;;;;;;;;5033329;28;20917;-71
2021/09/02 02:01:12;;;;;;;15.70;8.40;;;;;;;;;;5033209;28;20424;-73
2021/09/02 02:03:38;;;;;;;14.40;8.80;;;;;;;;;;5033663;28;20782;-74
2021/09/02 02:06:04;;;;;;;13.17;8.83;;;;;;;;;;5028398;28;20439;-73
2021/09/02 02:08:30;;;;;;;12.93;8.10;;;;;;;;;;5053021;28;20540;-72
2021/09/02 02:10:56;;;;;;;12.63;8.30;;;;;;;;;;5048192;28;20463;-71
2021/09/02 02:13:23;;;;;;;15.93;8.90;;;;;;;;;;5032304;28;20479;-72
2021/09/02 02:15:49;;;;;;;15.20;7.80;;;;;;;;;;5037941;28;20518;-74
2021/09/02 02:18:15;;;;;;;14.80;8.40;;;;;;;;;;5033112;28;20434;-73
2021/09/02 02:20:41;;;;;;;10.60;8.73;;;;;;;;;;5033092;28;20427;-73
2021/09/02 02:23:07;;;;;;;10.67;8.47;;;;;;;;;;5033153;28;20422;-75
2021/09/02 02:25:33;;;;;;;13.57;8.10;;;;;;;;;;5033408;28;20430;-74
2021/09/02 02:27:59;;;;;;;13.93;9.40;;;;;;;;;;5032824;28;20442;-72
2021/09/02 02:30:25;;;;;;;12.57;8.77;;;;;;;;;;5034872;28;20771;-76
2021/09/02 02:32:52;;;;;;;12.83;7.70;;;;;;;;;;5032505;28;20790;-71
2021/09/02 02:35:19;;;;;;;10.53;7.90;;;;;;;;;;5032968;28;20441;-74
2021/09/02 02:37:45;;;;;;;13.80;8.37;;;;;;;;;;5031030;28;20448;-73
2021/09/02 02:40:13;;;;;;;11.37;8.40;;;;;;;;;;5033189;28;20417;-74
2021/09/02 02:42:39;;;;;;;12.40;8.73;;;;;;;;;;5033308;28;20425;-75
2021/09/02 02:45:06;;;;;;;16.53;7.80;;;;;;;;;;5028696;28;20826;-73
2021/09/02 02:47:32;;;;;;;15.33;9.27;;;;;;;;;;5043310;28;20968;-74
2021/09/02 02:49:58;;;;;;;12.60;8.03;;;;;;;;;;5043941;28;20431;-73
2021/09/02 02:52:24;;;;;;;15.00;8.33;;;;;;;;;;5044163;28;20420;-73
2021/09/02 02:54:50;;;;;;;14.30;8.73;;;;;;;;;;5049771;28;20511;-74
2021/09/02 02:57:16;;;;;;;12.77;9.77;;;;;;;;;;5035938;28;20542;-74
2021/09/02 02:59:42;;;;;;;13.70;8.00;;;;;;;;;;5027318;28;20929;-74
2021/09/02 03:02:08;;;;;;;14.77;8.90;;;;;;;;;;5032879;28;20536;-75
2021/09/02 03:04:34;;;;;;;11.93;8.37;;;;;;;;;;5032839;28;20512;-75
2021/09/02 03:07:00;;;;;;;15.17;8.30;;;;;;;;;;5030850;28;20501;-72
2021/09/02 03:09:26;;;;;;;15.50;8.70;;;;;;;;;;5032577;28;20849;-75
2021/09/02 03:11:52;;;;;;;15.13;8.80;;;;;;;;;;5032663;28;20425;-74
2021/09/02 03:14:18;;;;;;;16.30;9.47;;;;;;;;;;5032823;28;20515;-73
2021/09/02 03:16:44;;;;;;;12.63;8.30;;;;;;;;;;5032327;28;20452;-70
2021/09/02 03:19:10;;;;;;;14.83;9.20;;;;;;;;;;5032710;28;20511;-73
2021/09/02 03:21:36;;;;;;;11.57;8.40;;;;;;;;;;5028948;28;20970;-73
2021/09/02 03:24:02;;;;;;;15.50;9.23;;;;;;;;;;5032901;28;20468;-71
2021/09/02 03:26:28;;;;;;;12.23;8.27;;;;;;;;;;5032482;28;20926;-73
2021/09/02 03:28:54;;;;;;;17.67;8.50;;;;;;;;;;5032431;28;20492;-72
2021/09/02 03:31:20;;;;;;;15.10;8.30;;;;;;;;;;5028504;28;20475;-75
2021/09/02 03:33:46;;;;;;;18.80;9.20;;;;;;;;;;5032804;28;20507;-75
2021/09/02 03:36:12;;;;;;;16.30;8.87;;;;;;;;;;5034629;28;20432;-72
2021/09/02 03:38:38;;;;;;;20.00;10.87;;;;;;;;;;5036034;28;20433;-75
2021/09/02 03:41:04;;;;;;;13.90;8.93;;;;;;;;;;5036156;28;20963;-75
2021/09/02 03:43:30;;;;;;;13.07;8.40;;;;;;;;;;5036097;28;20433;-74
2021/09/02 03:45:56;;;;;;;15.10;8.73;;;;;;;;;;5032126;28;20412;-74
2021/09/02 03:48:22;;;;;;;11.00;8.50;;;;;;;;;;5043317;28;20457;-74
2021/09/02 03:50:48;;;;;;;14.30;8.07;;;;;;;;;;5035764;28;20487;-74
2021/09/02 03:53:14;;;;;;;17.40;8.50;;;;;;;;;;5036328;28;20460;-74
2021/09/02 03:55:40;;;;;;;15.60;9.00;;;;;;;;;;5035711;28;20552;-73
2021/09/02 03:58:07;;;;;;;11.50;8.17;;;;;;;;;;5044385;28;20838;-75
2021/09/02 04:00:32;;;;;;;11.07;9.27;;;;;;;;;;5035564;28;20447;-74
2021/09/02 04:02:59;;;;;;;18.87;9.67;;;;;;;;;;5035754;28;20418;-75
2021/09/02 04:05:25;;;;;;;14.20;8.20;;;;;;;;;;5035617;28;20442;-70
2021/09/02 04:07:51;;;;;;;10.87;7.70;;;;;;;;;;5035637;28;20474;-75
2021/09/02 04:10:17;;;;;;;13.83;7.80;;;;;;;;;;5031627;28;20467;-71
2021/09/02 04:12:43;;;;;;;12.47;8.07;;;;;;;;;;5035762;28;20416;-71
2021/09/02 04:15:09;;;;;;;15.47;8.30;;;;;;;;;;5035447;28;20926;-74
2021/09/02 04:17:35;;;;;;;12.80;7.87;;;;;;;;;;5035209;28;20434;-73
2021/09/02 04:20:01;;;;;;;14.97;8.60;;;;;;;;;;5035205;28;20442;-73
2021/09/02 04:22:27;;;;;;;11.40;8.63;;;;;;;;;;5035831;28;20418;-71
2021/09/02 04:24:53;;;;;;;15.73;8.30;;;;;;;;;;5035227;28;20438;-71
2021/09/02 04:27:19;;;;;;;14.53;9.60;;;;;;;;;;5045727;28;20488;-76
2021/09/02 04:29:45;;;;;;;14.53;8.87;;;;;;;;;;5032660;28;20457;-73
2021/09/02 04:32:11;;;;;;;11.00;8.50;;;;;;;;;;5032926;28;20930;-70
2021/09/02 04:34:40;;;;;;;12.03;8.87;;;;;;;;;;5032625;28;20565;-77
2021/09/02 04:37:06;;;;;;;14.20;8.10;;;;;;;;;;5035029;28;20438;-73
2021/09/02 04:39:33;;;;;;;18.03;9.10;;;;;;;;;;5042552;28;20453;-70
2021/09/02 04:41:59;;;;;;;14.63;9.50;;;;;;;;;;5039463;28;20418;-73
2021/09/02 04:44:25;;;;;;;12.13;8.97;;;;;;;;;;5032581;28;20429;-73
2021/09/02 04:46:51;;;;;;;14.57;9.13;;;;;;;;;;5039675;28;20425;-73
2021/09/02 04:49:17;;;;;;;17.53;10.23;;;;;;;;;;5035238;28;20518;-75
2021/09/02 04:51:43;;;;;;;13.93;9.50;;;;;;;;;;5034859;28;20947;-74
2021/09/02 04:54:09;;;;;;;16.70;8.83;;;;;;;;;;5034115;28;20499;-75
2021/09/02 04:56:35;;;;;;;15.97;9.87;;;;;;;;;;5034502;28;20431;-73
2021/09/02 04:59:01;;;;;;;15.63;9.67;;;;;;;;;;5034848;28;20452;-73
2021/09/02 05:01:27;;;;;;;12.70;8.53;;;;;;;;;;5034560;28;20422;-72
2021/09/02 05:03:53;;;;;;;18.20;10.80;;;;;;;;;;5034097;28;20425;-72
2021/09/02 05:06:19;;;;;;;18.70;9.97;;;;;;;;;;5034848;28;20440;-74
2021/09/02 05:08:45;;;;;;;17.27;10.70;;;;;;;;;;5029064;28;20449;-74
2021/09/02 05:11:11;;;;;;;17.60;10.70;;;;;;;;;;5042274;28;20918;-72
2021/09/02 05:13:37;;;;;;;15.30;10.30;;;;;;;;;;5034890;28;20452;-75
2021/09/02 05:16:03;;;;;;;16.10;10.17;;;;;;;;;;5034308;28;20467;-73
2021/09/02 05:18:29;;;;;;;19.83;11.37;;;;;;;;;;5041330;28;20498;-72
2021/09/02 05:20:55;;;;;;;17.13;9.80;;;;;;;;;;5037423;28;20430;-73
2021/09/02 05:23:21;;;;;;;16.30;10.97;;;;;;;;;;5034528;28;20774;-73
2021/09/02 05:25:47;;;;;;;18.20;10.50;;;;;;;;;;5036025;28;20519;-73
2021/09/02 05:28:13;;;;;;;17.53;10.23;;;;;;;;;;5036635;28;20511;-74
2021/09/02 05:30:39;;;;;;;18.70;11.10;;;;;;;;;;5032724;28;21001;-70
2021/09/02 05:33:05;;;;;;;17.87;11.93;;;;;;;;;;5033819;28;20465;-72
2021/09/02 05:35:31;;;;;;;14.00;10.03;;;;;;;;;;5034317;28;20480;-73
2021/09/02 05:37:57;;;;;;;16.03;10.63;;;;;;;;;;5033954;28;20447;-72
2021/09/02 05:40:23;;;;;;;14.57;10.40;;;;;;;;;;5031556;28;20896;-71
2021/09/02 05:42:49;;;;;;;17.20;11.30;;;;;;;;;;5034163;28;20445;-74
2021/09/02 05:45:15;;;;;;;17.13;11.43;;;;;;;;;;5026442;28;20471;-73
2021/09/02 05:47:41;;;;;;;18.00;11.60;;;;;;;;;;5033786;28;20988;-72
2021/09/02 05:50:07;;;;;;;16.77;11.50;;;;;;;;;;5033859;28;20528;-74
2021/09/02 05:52:34;;;;;;;15.93;10.10;;;;;;;;;;5032541;28;20522;-74
2021/09/02 05:55:00;;;;;;;19.23;11.53;;;;;;;;;;5033892;28;20474;-75
2021/09/02 05:57:26;;;;;;;16.20;11.17;;;;;;;;;;5031520;28;20541;-72
2021/09/02 05:59:52;;;;;;;18.40;10.43;;;;;;;;;;5033858;28;20747;-73
2021/09/02 06:02:18;;;;;;;17.10;11.37;;;;;;;;;;5032715;28;20434;-73
2021/09/02 06:04:44;;;;;;;15.97;10.60;;;;;;;;;;5037002;28;20437;-74
2021/09/02 06:07:10;;;;;;;18.20;11.37;;;;;;;;;;5053236;28;20438;-73
2021/09/02 06:09:36;;;;;;;18.23;11.27;;;;;;;;;;5032042;28;21630;-75
2021/09/02 06:12:02;;;;;;;18.20;11.80;;;;;;;;;;5031368;28;20908;-73
2021/09/02 06:14:28;;;;;;;20.63;11.77;;;;;;;;;;5033626;28;20511;-71
2021/09/02 06:16:54;;;;;;;17.03;11.37;;;;;;;;;;5029188;28;20462;-72
2021/09/02 06:19:20;;;;;;;20.13;12.23;;;;;;;;;;5028033;28;20419;-71
2021/09/02 06:21:46;;;;;;;17.33;12.07;;;;;;;;;;5037749;28;20426;-72
2021/09/02 06:24:12;;;;;;;18.50;11.67;;;;;;;;;;5032322;28;20418;-75
2021/09/02 06:26:38;;;;;;;15.40;11.33;;;;;;;;;;5023702;28;20434;-74
2021/09/02 06:29:04;;;;;;;14.30;10.70;;;;;;;;;;5017132;28;20446;-74
2021/09/02 06:31:30;;;;;;;18.90;12.03;;;;;;;;;;5029723;28;20463;-74
2021/09/02 06:33:56;;;;;;;21.80;13.70;;;;;;;;;;5033879;28;20475;-73
2021/09/02 06:36:22;;;;;;;18.40;12.50;;;;;;;;;;5030891;28;20833;-73
2021/09/02 06:38:48;;;;;;;19.23;11.97;;;;;;;;;;5047766;28;21208;-72
2021/09/02 06:41:14;;;;;;;18.37;11.90;;;;;;;;;;5032179;28;20419;-75
2021/09/02 06:43:40;;;;;;;16.67;11.97;;;;;;;;;;5034568;28;20419;-73
2021/09/02 06:46:06;;;;;;;19.43;12.50;;;;;;;;;;5032374;28;20438;-72
2021/09/02 06:48:32;;;;;;;16.90;11.17;;;;;;;;;;5029167;28;20802;-75
2021/09/02 06:50:58;;;;;;;15.57;11.90;;;;;;;;;;5029381;28;20943;-75
2021/09/02 06:53:24;;;;;;;16.33;12.13;;;;;;;;;;5024680;28;20462;-75
2021/09/02 06:55:50;;;;;;;15.63;10.63;;;;;;;;;;5043374;28;20408;-71
2021/09/02 06:58:16;;;;;;;16.83;11.63;;;;;;;;;;5029044;28;20446;-74
2021/09/02 07:00:42;;;;;;;17.17;12.13;;;;;;;;;;5029198;28;20420;-73
2021/09/02 07:03:08;;;;;;;16.30;11.70;;;;;;;;;;5029260;28;20416;-75
2021/09/02 07:05:34;;;;;;;17.80;12.80;;;;;;;;;;5029358;28;21076;-73
2021/09/02 07:08:00;;;;;;;15.40;11.27;;;;;;;;;;5028466;28;20455;-73
2021/09/02 07:10:26;;;;;;;16.80;12.07;;;;;;;;;;5030453;28;20427;-72
2021/09/02 07:12:52;;;;;;;17.30;11.60;;;;;;;;;;5036823;28;20878;-72
2021/09/02 07:15:18;;;;;;;16.27;12.07;;;;;;;;;;5053224;28;20427;-73
2021/09/02 07:17:44;;;;;;;19.00;11.63;;;;;;;;;;5041651;28;20439;-75
2021/09/02 07:20:10;;;;;;;21.27;12.57;;;;;;;;;;5035860;28;20415;-74
2021/09/02 07:22:37;;;;;;;18.97;12.57;;;;;;;;;;5032897;28;20921;-74
2021/09/02 07:25:03;;;;;;;16.70;12.00;;;;;;;;;;5032794;28;20505;-72
2021/09/02 07:27:29;;;;;;;19.33;12.07;;;;;;;;;;5029785;28;20762;-75
2021/09/02 07:29:55;;;;;;;17.40;13.03;;;;;;;;;;5034665;28;20435;-74
2021/09/02 07:32:21;;;;;;;16.27;11.60;;;;;;;;;;5032761;28;20416;-72
2021/09/02 07:34:49;;;;;;;15.30;11.30;;;;;;;;;;5033167;28;20499;-73
2021/09/02 07:37:15;;;;;;;17.20;10.10;;;;;;;;;;5044884;28;20475;-72
2021/09/02 07:39:42;;;;;;;14.07;11.13;;;;;;;;;;5032377;28;20443;-73
2021/09/02 07:42:08;;;;;;;15.73;10.63;;;;;;;;;;5037674;28;20522;-71
2021/09/02 07:44:35;;;;;;;19.43;12.27;;;;;;;;;;5052414;28;20429;-72
2021/09/02 07:47:01;;;;;;;16.83;11.87;;;;;;;;;;5030035;28;20428;-75
2021/09/02 07:49:27;;;;;;;15.50;11.33;;;;;;;;;;5032346;28;20415;-71
2021/09/02 07:51:53;;;;;;;13.87;10.40;;;;;;;;;;5032155;28;20463;-75
2021/09/02 07:54:19;;;;;;;16.10;11.10;;;;;;;;;;5031706;28;20546;-74
2021/09/02 07:56:45;;;;;;;13.93;11.23;;;;;;;;;;5040583;28;20577;-74
2021/09/02 07:59:11;;;;;;;17.10;11.17;;;;;;;;;;5035981;28;20535;-72
2021/09/02 08:01:37;;;;;;;16.23;10.93;;;;;;;;;;5030624;28;20578;-75
2021/09/02 08:04:03;;;;;;;13.60;10.63;;;;;;;;;;5021397;28;20518;-72
2021/09/02 08:06:29;;;;;;;16.13;10.70;;;;;;;;;;5028391;28;20507;-72
2021/09/02 08:08:55;;;;;;;18.90;11.20;;;;;;;;;;5027484;28;20481;-74
2021/09/02 08:11:22;;;;;;;13.07;10.07;;;;;;;;;;5028113;28;20825;-72
2021/09/02 08:13:48;;;;;;;14.63;10.57;;;;;;;;;;5047190;28;20473;-73
2021/09/02 08:16:14;;;;;;;17.77;10.90;;;;;;;;;;5026543;28;20790;-73
2021/09/02 08:18:40;;;;;;;16.10;10.37;;;;;;;;;;5043428;28;20900;-71
2021/09/02 08:21:06;;;;;;;16.07;10.47;;;;;;;;;;5042393;28;20432;-72
2021/09/02 08:23:32;;;;;;;14.70;9.60;;;;;;;;;;5051614;28;20517;-71
2021/09/02 08:25:58;;;;;;;14.90;9.40;;;;;;;;;;5037180;28;20437;-74
2021/09/02 08:28:24;;;;;;;12.10;8.83;;;;;;;;;;5036808;28;20447;-72
2021/09/02 08:30:50;;;;;;;10.70;8.87;;;;;;;;;;5031264;28;20540;-74
2021/09/02 08:33:16;;;;;;;12.07;8.77;;;;;;;;;;5031257;28;20490;-74
2021/09/02 08:35:42;;;;;;;11.97;8.10;;;;;;;;;;5031467;28;20424;-73
2021/09/02 08:38:09;;;;;;;12.73;9.30;;;;;;;;;;5030948;28;20922;-74
2021/09/02 08:40:36;;;;;;;10.20;8.40;;;;;;;;;;5031298;28;20420;-73
2021/09/02 08:43:03;;;;;;;12.13;8.23;;;;;;;;;;5031351;28;20514;-74
2021/09/02 08:45:31;;;;;;;11.63;8.83;;;;;;;;;;5031231;28;20421;-73
2021/09/02 08:47:58;;;;;;;14.97;8.97;;;;;;;;;;5030874;28;20502;-72
2021/09/02 08:50:26;;;;;;;10.90;9.10;;;;;;;;;;5031035;28;20420;-72
2021/09/02 08:52:53;;;;;;;10.23;8.50;;;;;;;;;;5030217;28;20913;-73
2021/09/02 08:55:20;;;;;;;10.83;8.80;;;;;;;;;;5040045;28;20415;-72
2021/09/02 08:57:49;;;;;;;12.27;9.30;;;;;;;;;;5028086;28;20448;-74
2021/09/02 09:00:16;;;;;;;10.30;8.50;;;;;;;;;;5029653;28;20435;-70
2021/09/02 09:02:42;;;;;;;12.37;9.00;;;;;;;;;;5030946;28;20435;-76
2021/09/02 09:05:18;;;;;;;11.37;8.40;;;;;;;;;;5031008;28;20436;-71
2021/09/02 09:07:45;;;;;;;8.60;7.17;;;;;;;;;;5030197;28;20478;-74
2021/09/02 09:10:18;;;;;;;10.87;7.70;;;;;;;;;;5023655;28;20425;-74
2021/09/02 09:12:46;;;;;;;10.83;7.93;;;;;;;;;;5018365;28;20425;-73
2021/09/02 09:15:21;;;;;;;8.83;7.70;;;;;;;;;;5030915;28;20432;-73
2021/09/02 09:17:48;;;;;;;8.23;7.43;;;;;;;;;;5019385;28;20440;-73
2021/09/02 09:20:16;;;;;;;10.10;8.00;;;;;;;;;;5029841;28;20511;-71
2021/09/02 09:22:42;;;;;;;9.60;8.17;;;;;;;;;;5030946;28;20467;-74
2021/09/02 09:25:10;;;;;;;10.63;6.40;;;;;;;;;;5030412;28;20949;-72
2021/09/02 09:27:37;;;;;;;11.50;7.00;;;;;;;;;;5024790;28;20441;-72
2021/09/02 09:30:23;;;;;;;10.03;6.67;;;;;;;;;;5028351;28;20416;-74
2021/09/02 09:32:51;;;;;;;10.30;7.60;;;;;;;;;;5029198;28;20432;-75
2021/09/02 09:35:17;;;;;;;11.90;7.40;;;;;;;;;;5030257;28;21087;-73
2021/09/02 09:37:44;;;;;;;8.60;7.07;;;;;;;;;;5030038;28;21233;-74
2021/09/02 09:40:13;;;;;;;11.07;7.23;;;;;;;;;;5030210;28;20478;-74
2021/09/02 09:42:39;;;;;;;10.30;7.30;;;;;;;;;;5030253;28;20747;-74
2021/09/02 09:45:11;;;;;;;8.40;6.60;;;;;;;;;;5030150;28;20459;-74
2021/09/02 09:47:37;;;;;;;10.40;7.23;;;;;;;;;;5031228;28;20502;-72
2021/09/02 09:50:09;;;;;;;10.40;7.80;;;;;;;;;;5029367;28;20452;-73
2021/09/02 09:52:41;;;;;;;11.00;6.90;;;;;;;;;;5029595;28;20838;-74
2021/09/02 09:55:09;;;;;;;12.43;7.63;;;;;;;;;;5029606;28;20468;-74
2021/09/02 09:57:36;;;;;;;10.37;8.07;;;;;;;;;;5016791;28;20460;-71
2021/09/02 10:00:06;;;;;;;8.93;7.50;;;;;;;;;;5029932;28;20417;-73
2021/09/02 10:02:33;;;;;;;14.20;7.80;;;;;;;;;;5029538;28;20440;-72
2021/09/02 10:04:59;;;;;;;14.20;7.83;;;;;;;;;;5029779;28;20475;-71
2021/09/02 10:07:27;;;;;;;9.83;7.53;;;;;;;;;;5026139;28;20523;-74
2021/09/02 10:09:55;;;;;;;10.07;7.60;;;;;;;;;;5031219;28;20532;-73
2021/09/02 10:12:22;;;;;;;9.27;7.13;;;;;;;;;;5037821;28;20433;-74
2021/09/02 10:14:49;;;;;;;8.47;6.23;;;;;;;;;;5040453;28;20466;-74
2021/09/02 10:17:15;;;;;;;9.73;7.10;;;;;;;;;;5047398;28;20501;-72
2021/09/02 10:19:42;;;;;;;8.10;7.30;;;;;;;;;;5029722;28;20413;-75
2021/09/02 10:22:11;;;;;;;10.43;7.10;;;;;;;;;;5028623;28;20893;-72
2021/09/02 10:24:39;;;;;;;8.27;7.27;;;;;;;;;;5018382;28;20431;-75
2021/09/02 10:27:17;;;;;;;11.00;7.70;;;;;;;;;;5029148;28;20450;-72
2021/09/02 10:29:43;;;;;;;8.23;7.43;;;;;;;;;;5025205;28;20433;-72
2021/09/02 10:32:27;;;;;;;13.30;8.40;;;;;;;;;;5029322;28;20441;-73
2021/09/02 10:34:55;;;;;;;8.33;7.20;;;;;;;;;;5029343;28;20472;-72
2021/09/02 10:37:36;;;;;;;10.40;6.63;;;;;;;;;;5028921;28;20451;-73
2021/09/02 10:40:08;;;;;;;9.87;7.13;;;;;;;;;;5029412;28;20451;-75
2021/09/02 10:42:52;;;;;;;12.37;7.27;;;;;;;;;;5029296;28;20953;-73
2021/09/02 10:45:30;;;;;;;13.13;7.53;;;;;;;;;;5029079;28;20464;-73
2021/09/02 10:48:07;;;;;;;9.23;7.07;;;;;;;;;;5040770;28;20820;-74
2021/09/02 10:50:40;;;;;;;11.30;7.20;;;;;;;;;;5049289;28;20867;-74
2021/09/02 10:53:10;;;;;;;9.90;6.97;;;;;;;;;;5046482;28;20435;-72
2021/09/02 10:55:39;;;;;;;8.60;6.90;;;;;;;;;;5039839;28;20420;-75
2021/09/02 10:58:05;;;;;;;11.40;6.90;;;;;;;;;;5028637;28;20448;-74
2021/09/02 11:00:39;;;;;;;8.60;7.50;;;;;;;;;;5029418;28;20758;-75
2021/09/02 11:03:14;;;;;;;12.30;7.00;;;;;;;;;;5015311;28;20425;-71
2021/09/02 11:05:44;;;;;;;10.43;6.70;;;;;;;;;;5028936;28;20487;-73
2021/09/02 11:08:11;;;;;;;9.80;7.60;;;;;;;;;;5027365;28;21044;-73
2021/09/02 11:10:37;;;;;;;11.57;7.10;;;;;;;;;;5028955;28;20440;-73
2021/09/02 11:13:04;;;;;;;11.53;7.30;;;;;;;;;;5030365;28;20794;-74
2021/09/02 11:15:31;;;;;;;8.43;7.40;;;;;;;;;;5027028;28;20428;-74
2021/09/02 11:18:01;;;;;;;12.00;7.73;;;;;;;;;;5028558;28;20503;-76
2021/09/02 11:20:28;;;;;;;17.03;8.57;;;;;;;;;;5028749;28;20487;-72
2021/09/02 11:23:30;;;;;;;13.00;7.60;;;;;;;;;;5022772;28;20779;-75
2021/09/02 11:25:56;;;;;;;11.10;8.23;;;;;;;;;;5006068;28;20882;-72
2021/09/02 11:28:22;;;;;;;11.20;7.60;;;;;;;;;;5034616;28;20479;-71
2021/09/02 11:30:51;;;;;;;12.27;7.73;;;;;;;;;;5028827;28;20831;-74
2021/09/02 11:33:17;;;;;;;11.07;8.13;;;;;;;;;;5029279;28;20509;-76
2021/09/02 11:35:43;;;;;;;11.20;8.10;;;;;;;;;;5023747;28;20433;-70
2021/09/02 11:38:10;;;;;;;12.17;7.50;;;;;;;;;;5040786;28;20431;-73
2021/09/02 11:40:37;;;;;;;11.20;6.50;;;;;;;;;;5038436;28;20424;-72
2021/09/02 11:43:04;;;;;;;12.73;6.47;;;;;;;;;;5025856;28;20427;-73
2021/09/02 11:45:31;;;;;;;10.57;6.77;;;;;;;;;;5048479;28;20754;-71
2021/09/02 11:48:04;;;;;;;9.83;7.67;;;;;;;;;;5039970;28;20444;-70
2021/09/02 11:50:31;;;;;;;10.03;6.97;;;;;;;;;;5048745;28;20423;-70
2021/09/02 11:52:57;;;;;;;11.23;6.83;;;;;;;;;;5044182;28;20459;-72
2021/09/02 11:55:27;;;;;;;10.03;6.83;;;;;;;;;;5045432;28;20418;-71
2021/09/02 11:57:54;;;;;;;11.43;6.53;;;;;;;;;;5030071;28;20581;-71
2021/09/02 12:00:20;;;;;;;8.53;6.70;;;;;;;;;;5036541;28;20425;-73
2021/09/02 12:02:47;;;;;;;8.50;6.30;;;;;;;;;;5051474;28;20447;-72
2021/09/02 12:05:13;;;;;;;9.10;6.63;;;;;;;;;;5037367;28;20769;-74
2021/09/02 12:07:40;;;;;;;9.30;7.27;;;;;;;;;;5046232;28;20437;-71
2021/09/02 12:10:06;;;;;;;10.53;6.57;;;;;;;;;;5026977;28;20961;-74
2021/09/02 12:12:32;;;;;;;7.70;6.90;;;;;;;;;;5031467;28;20503;-73
2021/09/02 12:14:58;;;;;;;9.73;6.30;;;;;;;;;;5036769;28;20800;-74
2021/09/02 12:17:38;;;;;;;9.77;6.80;;;;;;;;;;5031342;28;20455;-73
2021/09/02 12:20:05;;;;;;;12.23;6.80;;;;;;;;;;5051295;28;20419;-71
2021/09/02 12:22:38;;;;;;;8.73;6.50;;;;;;;;;;5031741;28;20438;-73
2021/09/02 12:25:12;;;;;;;8.90;7.10;;;;;;;;;;5031872;28;20774;-70
2021/09/02 12:27:51;;;;;;;8.40;6.80;;;;;;;;;;5036272;28;20455;-71
2021/09/02 12:30:18;;;;;;;12.47;6.83;;;;;;;;;;5036571;28;20432;-74
2021/09/02 12:32:45;;;;;;;7.57;6.70;;;;;;;;;;5032366;28;20427;-71
2021/09/02 12:35:14;;;;;;;7.63;6.43;;;;;;;;;;5032466;28;20480;-70
2021/09/02 12:37:40;;;;;;;8.93;6.53;;;;;;;;;;5031349;28;20493;-72
2021/09/02 12:40:11;;;;;;;8.40;6.40;;;;;;;;;;5031387;28;20785;-71
2021/09/02 12:42:37;;;;;;;7.60;6.57;;;;;;;;;;5030479;28;20927;-72
2021/09/02 12:45:08;;;;;;;13.60;7.33;;;;;;;;;;5031100;28;20483;-74
2021/09/02 12:47:35;;;;;;;8.33;7.03;;;;;;;;;;5030726;28;20518;-72
2021/09/02 12:50:01;;;;;;;8.77;6.70;;;;;;;;;;5031155;28;20793;-73
2021/09/02 12:52:33;;;;;;;10.93;7.70;;;;;;;;;;5031212;28;20413;-72
2021/09/02 12:55:07;;;;;;;12.90;7.57;;;;;;;;;;5031076;28;20517;-74
2021/09/02 12:57:42;;;;;;;8.07;7.10;;;;;;;;;;5046278;28;20446;-72
2021/09/02 13:00:10;;;;;;;7.67;6.87;;;;;;;;;;5036113;28;21222;-73
2021/09/02 13:02:37;;;;;;;8.23;6.90;;;;;;;;;;5029064;28;20432;-71
2021/09/02 13:05:03;;;;;;;8.87;7.10;;;;;;;;;;5031100;28;20470;-71
2021/09/02 13:07:29;;;;;;;9.67;7.13;;;;;;;;;;5030411;28;20469;-73
2021/09/02 13:09:56;;;;;;;14.17;6.60;;;;;;;;;;5040475;28;20844;-72
2021/09/02 13:12:22;;;;;;;11.93;7.23;;;;;;;;;;5027787;28;21025;-71
2021/09/02 13:14:48;;;;;;;8.80;7.07;;;;;;;;;;5050824;28;21081;-73
2021/09/02 13:17:14;;;;;;;12.57;7.70;;;;;;;;;;5033458;28;20488;-70
2021/09/02 13:19:40;;;;;;;8.07;6.33;;;;;;;;;;5031291;28;20467;-73
2021/09/02 13:22:06;;;;;;;12.23;7.57;;;;;;;;;;5032430;28;20437;-72
2021/09/02 13:24:33;;;;;;;10.60;6.30;;;;;;;;;;5030931;28;20420;-73
2021/09/02 13:26:59;;;;;;;10.23;8.23;;;;;;;;;;5028154;28;20759;-73
2021/09/02 13:29:25;;;;;;;11.43;7.57;;;;;;;;;;5024662;28;20764;-72
2021/09/02 13:31:51;;;;;;;11.60;7.23;;;;;;;;;;5039797;28;20493;-71
2021/09/02 13:34:17;;;;;;;10.10;6.60;;;;;;;;;;5026780;28;20471;-71
2021/09/02 13:36:43;;;;;;;8.47;6.67;;;;;;;;;;5028704;28;20786;-70
2021/09/02 13:39:09;;;;;;;9.00;7.00;;;;;;;;;;5050481;28;20470;-73
2021/09/02 13:41:36;;;;;;;8.13;6.77;;;;;;;;;;5032776;28;20420;-71
2021/09/02 13:44:02;;;;;;;8.43;6.20;;;;;;;;;;5037108;28;20432;-71
2021/09/02 13:46:28;;;;;;;7.53;6.80;;;;;;;;;;5024834;28;20518;-70
2021/09/02 13:48:54;;;;;;;9.90;7.07;;;;;;;;;;5036654;28;20451;-71
2021/09/02 13:51:20;;;;;;;10.57;7.20;;;;;;;;;;5026099;28;20994;-72
2021/09/02 13:53:47;;;;;;;10.67;6.90;;;;;;;;;;5030129;28;20510;-73
2021/09/02 13:56:13;;;;;;;8.53;6.70;;;;;;;;;;5029618;28;20439;-72
2021/09/02 13:58:39;;;;;;;12.87;7.07;;;;;;;;;;5025511;28;20455;-74
2021/09/02 14:01:05;;;;;;;10.20;6.90;;;;;;;;;;5030100;28;20528;-73
2021/09/02 14:03:31;;;;;;;9.40;6.80;;;;;;;;;;5027548;28;20467;-71
2021/09/02 14:05:57;;;;;;;7.43;6.20;;;;;;;;;;5044961;28;20474;-71
2021/09/02 14:08:23;;;;;;;11.30;7.33;;;;;;;;;;5028860;28;20472;-71
2021/09/02 14:10:49;;;;;;;11.03;7.37;;;;;;;;;;5027566;28;20846;-73
2021/09/02 14:13:15;;;;;;;7.90;7.17;;;;;;;;;;5029055;28;20928;-72
2021/09/02 14:15:41;;;;;;;11.73;7.27;;;;;;;;;;5023138;28;20415;-73
2021/09/02 14:18:07;;;;;;;11.47;7.90;;;;;;;;;;5026853;28;20463;-74
2021/09/02 14:20:33;;;;;;;10.93;7.50;;;;;;;;;;5041877;28;20427;-71
2021/09/02 14:22:59;;;;;;;8.90;6.67;;;;;;;;;;5029531;28;21258;-71
2021/09/02 14:25:25;;;;;;;9.33;7.57;;;;;;;;;;5029618;28;20515;-70
2021/09/02 14:27:51;;;;;;;8.20;7.40;;;;;;;;;;5028998;28;20488;-72